sensor_id;sensor_type;location;lat;lon;timestamp;P1;durP1;ratioP1;P2;durP2;ratioP2
6463;SDS011;3265;42.694;23.282;2023-08-08T00:01:31;7.18;;;2.88;;
6463;SDS011;3265;42.694;23.282;2023-08-08T00:03:58;5.15;;;3.42;;
6463;SDS011;3265;42.694;23.282;2023-08-08T00:06:27;4.97;;;3.15;;
6463;SDS011;3265;42.694;23.282;2023-08-08T00:08:55;2.70;;;2.25;;
6463;SDS011;3265;42.694;23.282;2023-08-08T00:11:22;3.22;;;1.83;;
6463;SDS011;3265;42.694;23.282;2023-08-08T00:13:49;1.60;;;1.50;;
6463;SDS011;3265;42.694;23.282;2023-08-08T00:16:16;1.75;;;1.58;;
6463;SDS011;3265;42.694;23.282;2023-08-08T00:18:42;2.53;;;1.52;;
6463;SDS011;3265;42.694;23.282;2023-08-08T00:21:09;3.13;;;1.67;;
6463;SDS011;3265;42.694;23.282;2023-08-08T00:23:36;2.00;;;1.50;;
6463;SDS011;3265;42.694;23.282;2023-08-08T00:26:04;1.70;;;1.60;;
6463;SDS011;3265;42.694;23.282;2023-08-08T00:28:31;1.60;;;1.50;;
6463;SDS011;3265;42.694;23.282;2023-08-08T00:30:58;1.40;;;1.30;;
6463;SDS011;3265;42.694;23.282;2023-08-08T00:33:27;1.73;;;1.55;;
6463;SDS011;3265;42.694;23.282;2023-08-08T00:35:56;2.30;;;1.40;;
6463;SDS011;3265;42.694;23.282;2023-08-08T00:38:22;1.53;;;1.40;;
6463;SDS011;3265;42.694;23.282;2023-08-08T00:40:50;1.67;;;1.57;;
6463;SDS011;3265;42.694;23.282;2023-08-08T00:43:18;4.03;;;1.57;;
6463;SDS011;3265;42.694;23.282;2023-08-08T00:45:44;4.50;;;2.70;;
6463;SDS011;3265;42.694;23.282;2023-08-08T00:48:11;4.80;;;1.83;;
6463;SDS011;3265;42.694;23.282;2023-08-08T00:50:41;2.50;;;1.70;;
6463;SDS011;3265;42.694;23.282;2023-08-08T00:53:09;3.63;;;1.70;;
6463;SDS011;3265;42.694;23.282;2023-08-08T00:55:36;2.70;;;1.70;;
6463;SDS011;3265;42.694;23.282;2023-08-08T00:58:03;1.97;;;1.77;;
6463;SDS011;3265;42.694;23.282;2023-08-08T01:00:32;3.93;;;1.90;;
6463;SDS011;3265;42.694;23.282;2023-08-08T01:02:59;1.90;;;1.80;;
6463;SDS011;3265;42.694;23.282;2023-08-08T01:05:25;2.13;;;1.93;;
6463;SDS011;3265;42.694;23.282;2023-08-08T01:08:01;2.97;;;1.70;;
6463;SDS011;3265;42.694;23.282;2023-08-08T01:10:33;2.63;;;1.90;;
6463;SDS011;3265;42.694;23.282;2023-08-08T01:13:04;1.80;;;1.70;;
6463;SDS011;3265;42.694;23.282;2023-08-08T01:15:36;1.80;;;1.70;;
6463;SDS011;3265;42.694;23.282;2023-08-08T01:18:04;1.83;;;1.60;;
6463;SDS011;3265;42.694;23.282;2023-08-08T01:20:32;3.30;;;1.80;;
6463;SDS011;3265;42.694;23.282;2023-08-08T01:23:03;1.60;;;1.50;;
6463;SDS011;3265;42.694;23.282;2023-08-08T01:25:39;2.00;;;1.50;;
6463;SDS011;3265;42.694;23.282;2023-08-08T01:28:07;2.40;;;2.00;;
6463;SDS011;3265;42.694;23.282;2023-08-08T01:30:34;2.87;;;1.80;;
6463;SDS011;3265;42.694;23.282;2023-08-08T01:33:01;1.93;;;1.80;;
6463;SDS011;3265;42.694;23.282;2023-08-08T01:35:30;6.80;;;1.70;;
6463;SDS011;3265;42.694;23.282;2023-08-08T01:38:04;1.97;;;1.77;;
6463;SDS011;3265;42.694;23.282;2023-08-08T01:40:39;2.50;;;1.63;;
6463;SDS011;3265;42.694;23.282;2023-08-08T01:43:08;2.00;;;1.90;;
6463;SDS011;3265;42.694;23.282;2023-08-08T01:45:35;2.77;;;1.80;;
6463;SDS011;3265;42.694;23.282;2023-08-08T01:48:06;1.93;;;1.73;;
6463;SDS011;3265;42.694;23.282;2023-08-08T01:50:33;1.70;;;1.60;;
6463;SDS011;3265;42.694;23.282;2023-08-08T01:53:00;2.70;;;1.90;;
6463;SDS011;3265;42.694;23.282;2023-08-08T01:55:27;1.97;;;1.87;;
6463;SDS011;3265;42.694;23.282;2023-08-08T01:57:55;2.00;;;1.80;;
6463;SDS011;3265;42.694;23.282;2023-08-08T02:00:22;2.60;;;1.87;;
6463;SDS011;3265;42.694;23.282;2023-08-08T02:02:49;4.17;;;1.80;;
6463;SDS011;3265;42.694;23.282;2023-08-08T02:05:16;3.27;;;1.83;;
6463;SDS011;3265;42.694;23.282;2023-08-08T02:07:43;3.43;;;1.90;;
6463;SDS011;3265;42.694;23.282;2023-08-08T02:10:10;2.17;;;1.90;;
6463;SDS011;3265;42.694;23.282;2023-08-08T02:12:37;3.03;;;1.83;;
6463;SDS011;3265;42.694;23.282;2023-08-08T02:15:05;1.90;;;1.80;;
6463;SDS011;3265;42.694;23.282;2023-08-08T02:17:33;2.50;;;2.00;;
6463;SDS011;3265;42.694;23.282;2023-08-08T02:20:00;2.03;;;1.90;;
6463;SDS011;3265;42.694;23.282;2023-08-08T02:22:27;1.97;;;1.87;;
6463;SDS011;3265;42.694;23.282;2023-08-08T02:24:54;3.07;;;2.13;;
6463;SDS011;3265;42.694;23.282;2023-08-08T02:27:21;2.70;;;2.20;;
6463;SDS011;3265;42.694;23.282;2023-08-08T02:29:48;2.63;;;2.43;;
6463;SDS011;3265;42.694;23.282;2023-08-08T02:32:16;3.87;;;2.30;;
6463;SDS011;3265;42.694;23.282;2023-08-08T02:34:43;2.77;;;2.30;;
6463;SDS011;3265;42.694;23.282;2023-08-08T02:37:10;2.37;;;2.17;;
6463;SDS011;3265;42.694;23.282;2023-08-08T02:39:37;2.87;;;2.40;;
6463;SDS011;3265;42.694;23.282;2023-08-08T02:42:04;3.03;;;2.57;;
6463;SDS011;3265;42.694;23.282;2023-08-08T02:44:31;3.83;;;2.53;;
6463;SDS011;3265;42.694;23.282;2023-08-08T02:46:58;3.33;;;2.60;;
6463;SDS011;3265;42.694;23.282;2023-08-08T02:49:26;3.20;;;2.90;;
6463;SDS011;3265;42.694;23.282;2023-08-08T02:51:53;3.00;;;2.70;;
6463;SDS011;3265;42.694;23.282;2023-08-08T02:54:20;3.10;;;2.80;;
6463;SDS011;3265;42.694;23.282;2023-08-08T02:56:47;3.90;;;2.87;;
6463;SDS011;3265;42.694;23.282;2023-08-08T02:59:14;3.57;;;3.17;;
6463;SDS011;3265;42.694;23.282;2023-08-08T03:01:41;3.87;;;3.40;;
6463;SDS011;3265;42.694;23.282;2023-08-08T03:04:08;3.40;;;3.10;;
6463;SDS011;3265;42.694;23.282;2023-08-08T03:06:36;3.50;;;3.20;;
6463;SDS011;3265;42.694;23.282;2023-08-08T03:09:03;3.50;;;3.10;;
6463;SDS011;3265;42.694;23.282;2023-08-08T03:11:30;3.43;;;3.13;;
6463;SDS011;3265;42.694;23.282;2023-08-08T03:13:57;3.40;;;3.10;;
6463;SDS011;3265;42.694;23.282;2023-08-08T03:16:23;10.57;;;3.43;;
6463;SDS011;3265;42.694;23.282;2023-08-08T03:18:50;3.47;;;3.17;;
6463;SDS011;3265;42.694;23.282;2023-08-08T03:21:17;3.90;;;3.50;;
6463;SDS011;3265;42.694;23.282;2023-08-08T03:23:45;3.77;;;3.37;;
6463;SDS011;3265;42.694;23.282;2023-08-08T03:26:12;3.63;;;3.33;;
6463;SDS011;3265;42.694;23.282;2023-08-08T03:28:39;6.23;;;3.40;;
6463;SDS011;3265;42.694;23.282;2023-08-08T03:31:05;4.07;;;3.60;;
6463;SDS011;3265;42.694;23.282;2023-08-08T03:33:32;5.93;;;3.60;;
6463;SDS011;3265;42.694;23.282;2023-08-08T03:35:59;4.20;;;3.40;;
6463;SDS011;3265;42.694;23.282;2023-08-08T03:38:26;4.50;;;4.10;;
6463;SDS011;3265;42.694;23.282;2023-08-08T03:40:54;5.80;;;4.20;;
6463;SDS011;3265;42.694;23.282;2023-08-08T03:43:21;4.27;;;3.87;;
6463;SDS011;3265;42.694;23.282;2023-08-08T03:45:48;5.93;;;4.67;;
6463;SDS011;3265;42.694;23.282;2023-08-08T03:48:15;6.27;;;4.20;;
6463;SDS011;3265;42.694;23.282;2023-08-08T03:50:42;8.80;;;4.57;;
6463;SDS011;3265;42.694;23.282;2023-08-08T03:53:09;5.43;;;4.33;;
6463;SDS011;3265;42.694;23.282;2023-08-08T03:55:35;6.43;;;4.20;;
6463;SDS011;3265;42.694;23.282;2023-08-08T03:58:03;4.83;;;4.27;;
6463;SDS011;3265;42.694;23.282;2023-08-08T04:00:31;6.53;;;4.20;;
6463;SDS011;3265;42.694;23.282;2023-08-08T04:02:58;8.50;;;4.43;;
6463;SDS011;3265;42.694;23.282;2023-08-08T04:05:24;5.33;;;4.43;;
6463;SDS011;3265;42.694;23.282;2023-08-08T04:07:51;5.10;;;4.60;;
6463;SDS011;3265;42.694;23.282;2023-08-08T04:10:18;5.37;;;4.87;;
6463;SDS011;3265;42.694;23.282;2023-08-08T04:12:45;5.63;;;4.50;;
6463;SDS011;3265;42.694;23.282;2023-08-08T04:15:13;5.43;;;4.70;;
6463;SDS011;3265;42.694;23.282;2023-08-08T04:17:40;6.90;;;4.93;;
6463;SDS011;3265;42.694;23.282;2023-08-08T04:20:07;5.60;;;4.43;;
6463;SDS011;3265;42.694;23.282;2023-08-08T04:22:35;4.97;;;4.33;;
6463;SDS011;3265;42.694;23.282;2023-08-08T04:25:03;5.50;;;5.00;;
6463;SDS011;3265;42.694;23.282;2023-08-08T04:27:30;5.30;;;4.53;;
6463;SDS011;3265;42.694;23.282;2023-08-08T04:29:57;5.43;;;4.90;;
6463;SDS011;3265;42.694;23.282;2023-08-08T04:32:25;6.60;;;4.67;;
6463;SDS011;3265;42.694;23.282;2023-08-08T04:34:52;7.87;;;5.10;;
6463;SDS011;3265;42.694;23.282;2023-08-08T04:37:19;7.10;;;5.47;;
6463;SDS011;3265;42.694;23.282;2023-08-08T04:39:46;5.30;;;4.80;;
6463;SDS011;3265;42.694;23.282;2023-08-08T04:42:12;5.83;;;4.80;;
6463;SDS011;3265;42.694;23.282;2023-08-08T04:44:39;7.20;;;4.70;;
6463;SDS011;3265;42.694;23.282;2023-08-08T04:47:06;9.80;;;4.80;;
6463;SDS011;3265;42.694;23.282;2023-08-08T04:49:34;4.97;;;4.53;;
6463;SDS011;3265;42.694;23.282;2023-08-08T04:52:01;6.60;;;4.70;;
6463;SDS011;3265;42.694;23.282;2023-08-08T04:54:28;5.27;;;4.50;;
6463;SDS011;3265;42.694;23.282;2023-08-08T04:56:56;6.00;;;4.87;;
6463;SDS011;3265;42.694;23.282;2023-08-08T04:59:23;5.83;;;4.90;;
6463;SDS011;3265;42.694;23.282;2023-08-08T05:01:52;7.70;;;4.90;;
6463;SDS011;3265;42.694;23.282;2023-08-08T05:04:19;5.00;;;4.50;;
6463;SDS011;3265;42.694;23.282;2023-08-08T05:06:47;5.97;;;4.83;;
6463;SDS011;3265;42.694;23.282;2023-08-08T05:09:14;6.93;;;4.67;;
6463;SDS011;3265;42.694;23.282;2023-08-08T05:11:41;7.63;;;4.80;;
6463;SDS011;3265;42.694;23.282;2023-08-08T05:14:08;6.57;;;4.90;;
6463;SDS011;3265;42.694;23.282;2023-08-08T05:16:35;8.63;;;4.60;;
6463;SDS011;3265;42.694;23.282;2023-08-08T05:19:02;7.33;;;4.07;;
6463;SDS011;3265;42.694;23.282;2023-08-08T05:21:28;6.53;;;4.37;;
6463;SDS011;3265;42.694;23.282;2023-08-08T05:23:56;5.83;;;4.20;;
6463;SDS011;3265;42.694;23.282;2023-08-08T05:26:23;5.53;;;4.23;;
6463;SDS011;3265;42.694;23.282;2023-08-08T05:28:50;8.33;;;4.07;;
6463;SDS011;3265;42.694;23.282;2023-08-08T05:31:17;4.70;;;4.30;;
6463;SDS011;3265;42.694;23.282;2023-08-08T05:33:44;8.67;;;4.53;;
6463;SDS011;3265;42.694;23.282;2023-08-08T05:36:10;4.93;;;4.10;;
6463;SDS011;3265;42.694;23.282;2023-08-08T05:38:37;8.10;;;4.03;;
6463;SDS011;3265;42.694;23.282;2023-08-08T05:41:05;4.70;;;4.20;;
6463;SDS011;3265;42.694;23.282;2023-08-08T05:43:32;4.37;;;3.70;;
6463;SDS011;3265;42.694;23.282;2023-08-08T05:45:59;6.80;;;4.00;;
6463;SDS011;3265;42.694;23.282;2023-08-08T05:48:26;6.50;;;3.70;;
6463;SDS011;3265;42.694;23.282;2023-08-08T05:50:53;13.50;;;4.80;;
6463;SDS011;3265;42.694;23.282;2023-08-08T05:53:23;4.20;;;3.80;;
6463;SDS011;3265;42.694;23.282;2023-08-08T05:55:50;5.87;;;4.60;;
6463;SDS011;3265;42.694;23.282;2023-08-08T05:58:19;5.77;;;4.40;;
6463;SDS011;3265;42.694;23.282;2023-08-08T06:00:45;8.90;;;4.70;;
6463;SDS011;3265;42.694;23.282;2023-08-08T06:03:13;5.43;;;4.67;;
6463;SDS011;3265;42.694;23.282;2023-08-08T06:05:39;6.00;;;4.90;;
6463;SDS011;3265;42.694;23.282;2023-08-08T06:08:06;6.90;;;4.40;;
6463;SDS011;3265;42.694;23.282;2023-08-08T06:10:36;5.20;;;4.70;;
6463;SDS011;3265;42.694;23.282;2023-08-08T06:13:03;6.80;;;4.90;;
6463;SDS011;3265;42.694;23.282;2023-08-08T06:15:31;5.03;;;4.43;;
6463;SDS011;3265;42.694;23.282;2023-08-08T06:17:59;6.03;;;4.50;;
6463;SDS011;3265;42.694;23.282;2023-08-08T06:20:25;10.23;;;4.40;;
6463;SDS011;3265;42.694;23.282;2023-08-08T06:22:53;4.60;;;4.20;;
6463;SDS011;3265;42.694;23.282;2023-08-08T06:25:20;4.87;;;4.43;;
6463;SDS011;3265;42.694;23.282;2023-08-08T06:27:47;6.07;;;4.50;;
6463;SDS011;3265;42.694;23.282;2023-08-08T06:30:14;5.63;;;4.60;;
6463;SDS011;3265;42.694;23.282;2023-08-08T06:32:43;5.00;;;4.50;;
6463;SDS011;3265;42.694;23.282;2023-08-08T06:35:10;4.97;;;4.40;;
6463;SDS011;3265;42.694;23.282;2023-08-08T06:37:36;4.50;;;4.10;;
6463;SDS011;3265;42.694;23.282;2023-08-08T06:40:04;5.60;;;3.90;;
6463;SDS011;3265;42.694;23.282;2023-08-08T06:42:32;4.70;;;3.87;;
6463;SDS011;3265;42.694;23.282;2023-08-08T06:44:59;5.40;;;3.70;;
6463;SDS011;3265;42.694;23.282;2023-08-08T06:47:25;3.33;;;3.03;;
6463;SDS011;3265;42.694;23.282;2023-08-08T06:49:54;5.80;;;2.90;;
6463;SDS011;3265;42.694;23.282;2023-08-08T06:52:21;2.90;;;2.70;;
6463;SDS011;3265;42.694;23.282;2023-08-08T06:54:47;3.07;;;2.77;;
6463;SDS011;3265;42.694;23.282;2023-08-08T06:57:14;3.90;;;3.10;;
6463;SDS011;3265;42.694;23.282;2023-08-08T06:59:41;3.37;;;2.77;;
6463;SDS011;3265;42.694;23.282;2023-08-08T07:02:08;3.37;;;3.07;;
6463;SDS011;3265;42.694;23.282;2023-08-08T07:04:36;3.87;;;2.80;;
6463;SDS011;3265;42.694;23.282;2023-08-08T07:07:04;4.67;;;3.17;;
6463;SDS011;3265;42.694;23.282;2023-08-08T07:09:31;3.40;;;3.10;;
6463;SDS011;3265;42.694;23.282;2023-08-08T07:11:59;8.73;;;3.40;;
6463;SDS011;3265;42.694;23.282;2023-08-08T07:14:26;3.53;;;2.40;;
6463;SDS011;3265;42.694;23.282;2023-08-08T07:16:53;3.03;;;2.60;;
6463;SDS011;3265;42.694;23.282;2023-08-08T07:19:20;3.10;;;2.80;;
6463;SDS011;3265;42.694;23.282;2023-08-08T07:21:47;5.00;;;2.60;;
6463;SDS011;3265;42.694;23.282;2023-08-08T07:24:16;4.87;;;2.67;;
6463;SDS011;3265;42.694;23.282;2023-08-08T07:26:43;5.10;;;2.40;;
6463;SDS011;3265;42.694;23.282;2023-08-08T07:29:10;6.53;;;2.57;;
6463;SDS011;3265;42.694;23.282;2023-08-08T07:31:37;2.70;;;2.50;;
6463;SDS011;3265;42.694;23.282;2023-08-08T07:34:03;2.50;;;2.30;;
6463;SDS011;3265;42.694;23.282;2023-08-08T07:36:30;2.47;;;2.27;;
6463;SDS011;3265;42.694;23.282;2023-08-08T07:38:57;5.40;;;2.40;;
6463;SDS011;3265;42.694;23.282;2023-08-08T07:41:26;4.17;;;2.20;;
6463;SDS011;3265;42.694;23.282;2023-08-08T07:43:53;2.70;;;2.30;;
6463;SDS011;3265;42.694;23.282;2023-08-08T07:46:19;1.93;;;1.83;;
6463;SDS011;3265;42.694;23.282;2023-08-08T07:48:46;2.60;;;2.10;;
6463;SDS011;3265;42.694;23.282;2023-08-08T07:51:13;3.40;;;2.00;;
6463;SDS011;3265;42.694;23.282;2023-08-08T07:53:40;2.20;;;2.00;;
6463;SDS011;3265;42.694;23.282;2023-08-08T07:56:07;2.57;;;2.00;;
6463;SDS011;3265;42.694;23.282;2023-08-08T07:58:35;2.17;;;2.03;;
6463;SDS011;3265;42.694;23.282;2023-08-08T08:01:02;8.20;;;2.17;;
6463;SDS011;3265;42.694;23.282;2023-08-08T08:03:29;2.20;;;2.00;;
6463;SDS011;3265;42.694;23.282;2023-08-08T08:05:55;2.73;;;2.20;;
6463;SDS011;3265;42.694;23.282;2023-08-08T08:08:22;3.10;;;2.30;;
6463;SDS011;3265;42.694;23.282;2023-08-08T08:10:50;2.78;;;2.10;;
6463;SDS011;3265;42.694;23.282;2023-08-08T08:13:17;11.70;;;2.30;;
6463;SDS011;3265;42.694;23.282;2023-08-08T08:15:45;2.35;;;2.00;;
6463;SDS011;3265;42.694;23.282;2023-08-08T08:18:12;2.67;;;2.20;;
6463;SDS011;3265;42.694;23.282;2023-08-08T08:20:42;4.57;;;2.67;;
6463;SDS011;3265;42.694;23.282;2023-08-08T08:23:09;5.18;;;2.47;;
6463;SDS011;3265;42.694;23.282;2023-08-08T08:25:36;2.50;;;2.30;;
6463;SDS011;3265;42.694;23.282;2023-08-08T08:28:03;2.55;;;2.35;;
6463;SDS011;3265;42.694;23.282;2023-08-08T08:30:30;4.88;;;2.30;;
6463;SDS011;3265;42.694;23.282;2023-08-08T08:32:59;3.75;;;2.20;;
6463;SDS011;3265;42.694;23.282;2023-08-08T08:35:26;2.45;;;2.25;;
6463;SDS011;3265;42.694;23.282;2023-08-08T08:37:54;2.42;;;2.22;;
6463;SDS011;3265;42.694;23.282;2023-08-08T08:40:27;2.40;;;2.20;;
6463;SDS011;3265;42.694;23.282;2023-08-08T08:42:56;3.95;;;2.92;;
6463;SDS011;3265;42.694;23.282;2023-08-08T08:45:23;2.70;;;2.50;;
6463;SDS011;3265;42.694;23.282;2023-08-08T08:47:51;2.80;;;2.53;;
6463;SDS011;3265;42.694;23.282;2023-08-08T08:50:23;3.20;;;2.83;;
6463;SDS011;3265;42.694;23.282;2023-08-08T08:52:53;3.90;;;3.10;;
6463;SDS011;3265;42.694;23.282;2023-08-08T08:55:23;3.17;;;2.78;;
6463;SDS011;3265;42.694;23.282;2023-08-08T08:57:50;3.88;;;2.63;;
6463;SDS011;3265;42.694;23.282;2023-08-08T09:00:17;4.57;;;2.60;;
6463;SDS011;3265;42.694;23.282;2023-08-08T09:02:45;2.97;;;2.47;;
6463;SDS011;3265;42.694;23.282;2023-08-08T09:05:12;2.78;;;2.55;;
6463;SDS011;3265;42.694;23.282;2023-08-08T09:07:43;4.88;;;2.40;;
6463;SDS011;3265;42.694;23.282;2023-08-08T09:10:10;2.63;;;2.40;;
6463;SDS011;3265;42.694;23.282;2023-08-08T09:12:40;4.78;;;2.38;;
6463;SDS011;3265;42.694;23.282;2023-08-08T09:15:19;2.75;;;2.50;;
6463;SDS011;3265;42.694;23.282;2023-08-08T09:17:58;5.78;;;2.42;;
6463;SDS011;3265;42.694;23.282;2023-08-08T09:20:26;2.50;;;2.30;;
6463;SDS011;3265;42.694;23.282;2023-08-08T09:23:04;3.28;;;2.40;;
6463;SDS011;3265;42.694;23.282;2023-08-08T09:25:31;4.07;;;2.10;;
6463;SDS011;3265;42.694;23.282;2023-08-08T09:27:58;2.40;;;2.20;;
6463;SDS011;3265;42.694;23.282;2023-08-08T09:30:25;2.85;;;2.30;;
6463;SDS011;3265;42.694;23.282;2023-08-08T09:32:52;4.55;;;2.53;;
6463;SDS011;3265;42.694;23.282;2023-08-08T09:35:19;3.17;;;2.20;;
6463;SDS011;3265;42.694;23.282;2023-08-08T09:37:49;3.83;;;2.60;;
6463;SDS011;3265;42.694;23.282;2023-08-08T09:40:20;2.88;;;2.60;;
6463;SDS011;3265;42.694;23.282;2023-08-08T09:42:47;3.55;;;2.50;;
6463;SDS011;3265;42.694;23.282;2023-08-08T09:45:14;2.88;;;2.58;;
6463;SDS011;3265;42.694;23.282;2023-08-08T09:47:41;3.17;;;2.72;;
6463;SDS011;3265;42.694;23.282;2023-08-08T09:50:08;2.97;;;2.70;;
6463;SDS011;3265;42.694;23.282;2023-08-08T09:52:35;3.53;;;2.50;;
6463;SDS011;3265;42.694;23.282;2023-08-08T09:55:04;2.90;;;2.70;;
6463;SDS011;3265;42.694;23.282;2023-08-08T09:57:33;3.40;;;3.00;;
6463;SDS011;3265;42.694;23.282;2023-08-08T10:00:01;3.88;;;2.60;;
6463;SDS011;3265;42.694;23.282;2023-08-08T10:02:30;3.22;;;2.72;;
6463;SDS011;3265;42.694;23.282;2023-08-08T10:04:58;6.82;;;2.90;;
6463;SDS011;3265;42.694;23.282;2023-08-08T10:07:25;7.22;;;3.10;;
6463;SDS011;3265;42.694;23.282;2023-08-08T10:09:52;4.93;;;3.10;;
6463;SDS011;3265;42.694;23.282;2023-08-08T10:12:20;3.05;;;2.70;;
6463;SDS011;3265;42.694;23.282;2023-08-08T10:14:52;3.10;;;2.80;;
6463;SDS011;3265;42.694;23.282;2023-08-08T10:17:34;3.33;;;2.78;;
6463;SDS011;3265;42.694;23.282;2023-08-08T10:20:02;3.80;;;3.10;;
6463;SDS011;3265;42.694;23.282;2023-08-08T10:22:36;3.78;;;2.60;;
6463;SDS011;3265;42.694;23.282;2023-08-08T10:25:17;2.83;;;2.63;;
6463;SDS011;3265;42.694;23.282;2023-08-08T10:28:01;3.70;;;2.80;;
6463;SDS011;3265;42.694;23.282;2023-08-08T10:30:40;4.78;;;2.63;;
6463;SDS011;3265;42.694;23.282;2023-08-08T10:33:18;3.45;;;2.50;;
6463;SDS011;3265;42.694;23.282;2023-08-08T10:35:57;2.65;;;2.45;;
6463;SDS011;3265;42.694;23.282;2023-08-08T10:38:26;2.30;;;2.10;;
6463;SDS011;3265;42.694;23.282;2023-08-08T10:41:08;2.80;;;2.20;;
6463;SDS011;3265;42.694;23.282;2023-08-08T10:43:47;6.30;;;2.40;;
6463;SDS011;3265;42.694;23.282;2023-08-08T10:46:24;3.55;;;2.20;;
6463;SDS011;3265;42.694;23.282;2023-08-08T10:48:52;3.67;;;2.85;;
6463;SDS011;3265;42.694;23.282;2023-08-08T10:51:20;2.58;;;2.17;;
6463;SDS011;3265;42.694;23.282;2023-08-08T10:53:50;2.15;;;1.95;;
6463;SDS011;3265;42.694;23.282;2023-08-08T10:56:18;2.40;;;2.20;;
6463;SDS011;3265;42.694;23.282;2023-08-08T10:58:47;4.20;;;2.10;;
6463;SDS011;3265;42.694;23.282;2023-08-08T11:01:15;2.92;;;2.10;;
6463;SDS011;3265;42.694;23.282;2023-08-08T11:03:44;2.03;;;1.92;;
6463;SDS011;3265;42.694;23.282;2023-08-08T11:06:15;2.00;;;1.90;;
6463;SDS011;3265;42.694;23.282;2023-08-08T11:08:53;4.35;;;2.30;;
6463;SDS011;3265;42.694;23.282;2023-08-08T11:11:20;2.30;;;2.08;;
6463;SDS011;3265;42.694;23.282;2023-08-08T11:13:51;2.53;;;1.85;;
6463;SDS011;3265;42.694;23.282;2023-08-08T11:16:20;2.20;;;2.08;;
6463;SDS011;3265;42.694;23.282;2023-08-08T11:18:52;3.28;;;2.10;;
6463;SDS011;3265;42.694;23.282;2023-08-08T11:21:22;2.00;;;1.80;;
6463;SDS011;3265;42.694;23.282;2023-08-08T11:23:52;2.15;;;1.95;;
6463;SDS011;3265;42.694;23.282;2023-08-08T11:26:19;1.92;;;1.83;;
6463;SDS011;3265;42.694;23.282;2023-08-08T11:28:49;3.53;;;1.88;;
6463;SDS011;3265;42.694;23.282;2023-08-08T11:31:17;2.85;;;2.00;;
6463;SDS011;3265;42.694;23.282;2023-08-08T11:33:46;5.68;;;1.70;;
6463;SDS011;3265;42.694;23.282;2023-08-08T11:36:14;2.25;;;1.92;;
6463;SDS011;3265;42.694;23.282;2023-08-08T11:38:42;1.88;;;1.77;;
6463;SDS011;3265;42.694;23.282;2023-08-08T11:41:09;1.90;;;1.80;;
6463;SDS011;3265;42.694;23.282;2023-08-08T11:43:37;2.20;;;2.00;;
6463;SDS011;3265;42.694;23.282;2023-08-08T11:46:05;1.80;;;1.70;;
6463;SDS011;3265;42.694;23.282;2023-08-08T11:48:36;1.95;;;1.77;;
6463;SDS011;3265;42.694;23.282;2023-08-08T11:51:04;2.03;;;1.85;;
6463;SDS011;3265;42.694;23.282;2023-08-08T11:53:33;3.30;;;2.05;;
6463;SDS011;3265;42.694;23.282;2023-08-08T11:56:01;2.30;;;1.83;;
6463;SDS011;3265;42.694;23.282;2023-08-08T11:58:36;3.28;;;1.65;;
6463;SDS011;3265;42.694;23.282;2023-08-08T12:01:24;1.80;;;1.70;;
6463;SDS011;3265;42.694;23.282;2023-08-08T12:03:52;3.95;;;2.00;;
6463;SDS011;3265;42.694;23.282;2023-08-08T12:06:20;3.15;;;1.80;;
6463;SDS011;3265;42.694;23.282;2023-08-08T12:08:48;2.10;;;1.90;;
6463;SDS011;3265;42.694;23.282;2023-08-08T12:11:15;2.05;;;1.80;;
6463;SDS011;3265;42.694;23.282;2023-08-08T12:13:43;2.72;;;1.92;;
6463;SDS011;3265;42.694;23.282;2023-08-08T12:16:11;3.58;;;1.95;;
6463;SDS011;3265;42.694;23.282;2023-08-08T12:18:39;6.53;;;2.17;;
6463;SDS011;3265;42.694;23.282;2023-08-08T12:21:07;2.67;;;2.47;;
6463;SDS011;3265;42.694;23.282;2023-08-08T12:23:37;2.00;;;1.90;;
6463;SDS011;3265;42.694;23.282;2023-08-08T12:26:06;2.25;;;2.00;;
6463;SDS011;3265;42.694;23.282;2023-08-08T12:28:33;1.90;;;1.80;;
6463;SDS011;3265;42.694;23.282;2023-08-08T12:31:00;2.20;;;2.00;;
6463;SDS011;3265;42.694;23.282;2023-08-08T12:33:27;2.08;;;1.90;;
6463;SDS011;3265;42.694;23.282;2023-08-08T12:35:54;3.72;;;1.77;;
6463;SDS011;3265;42.694;23.282;2023-08-08T12:38:21;2.17;;;2.00;;
6463;SDS011;3265;42.694;23.282;2023-08-08T12:40:49;2.00;;;1.90;;
6463;SDS011;3265;42.694;23.282;2023-08-08T12:43:17;2.17;;;1.90;;
6463;SDS011;3265;42.694;23.282;2023-08-08T12:45:44;1.70;;;1.60;;
6463;SDS011;3265;42.694;23.282;2023-08-08T12:48:11;3.67;;;1.90;;
6463;SDS011;3265;42.694;23.282;2023-08-08T12:50:38;1.95;;;1.85;;
6463;SDS011;3265;42.694;23.282;2023-08-08T12:53:05;2.60;;;2.00;;
6463;SDS011;3265;42.694;23.282;2023-08-08T12:55:33;3.03;;;1.80;;
6463;SDS011;3265;42.694;23.282;2023-08-08T12:58:00;1.80;;;1.70;;
6463;SDS011;3265;42.694;23.282;2023-08-08T13:00:31;2.17;;;1.70;;
6463;SDS011;3265;42.694;23.282;2023-08-08T13:02:58;3.72;;;1.80;;
6463;SDS011;3265;42.694;23.282;2023-08-08T13:05:25;1.92;;;1.67;;
6463;SDS011;3265;42.694;23.282;2023-08-08T13:07:52;1.73;;;1.60;;
6463;SDS011;3265;42.694;23.282;2023-08-08T13:10:18;1.80;;;1.70;;
6463;SDS011;3265;42.694;23.282;2023-08-08T13:12:46;1.70;;;1.60;;
6463;SDS011;3265;42.694;23.282;2023-08-08T13:15:13;2.25;;;1.70;;
6463;SDS011;3265;42.694;23.282;2023-08-08T13:17:41;2.10;;;1.90;;
6463;SDS011;3265;42.694;23.282;2023-08-08T13:20:08;1.90;;;1.80;;
6463;SDS011;3265;42.694;23.282;2023-08-08T13:22:37;2.92;;;2.10;;
6463;SDS011;3265;42.694;23.282;2023-08-08T13:25:05;3.30;;;1.83;;
6463;SDS011;3265;42.694;23.282;2023-08-08T13:27:32;3.28;;;1.75;;
6463;SDS011;3265;42.694;23.282;2023-08-08T13:29:59;1.90;;;1.80;;
6463;SDS011;3265;42.694;23.282;2023-08-08T13:32:26;2.75;;;1.80;;
6463;SDS011;3265;42.694;23.282;2023-08-08T13:34:56;2.10;;;1.90;;
6463;SDS011;3265;42.694;23.282;2023-08-08T13:37:23;4.80;;;2.10;;
6463;SDS011;3265;42.694;23.282;2023-08-08T13:39:49;4.00;;;2.08;;
6463;SDS011;3265;42.694;23.282;2023-08-08T13:42:16;2.85;;;1.70;;
6463;SDS011;3265;42.694;23.282;2023-08-08T13:44:43;2.30;;;1.60;;
6463;SDS011;3265;42.694;23.282;2023-08-08T13:47:10;2.00;;;1.60;;
6463;SDS011;3265;42.694;23.282;2023-08-08T13:49:37;4.18;;;1.58;;
6463;SDS011;3265;42.694;23.282;2023-08-08T13:52:05;2.92;;;1.58;;
6463;SDS011;3265;42.694;23.282;2023-08-08T13:54:34;2.65;;;2.20;;
6463;SDS011;3265;42.694;23.282;2023-08-08T13:57:03;4.75;;;1.90;;
6463;SDS011;3265;42.694;23.282;2023-08-08T13:59:30;3.17;;;2.03;;
6463;SDS011;3265;42.694;23.282;2023-08-08T14:01:59;4.07;;;1.95;;
6463;SDS011;3265;42.694;23.282;2023-08-08T14:04:26;3.75;;;1.80;;
6463;SDS011;3265;42.694;23.282;2023-08-08T14:06:53;2.22;;;1.90;;
6463;SDS011;3265;42.694;23.282;2023-08-08T14:09:21;2.58;;;1.70;;
6463;SDS011;3265;42.694;23.282;2023-08-08T14:11:48;1.80;;;1.60;;
6463;SDS011;3265;42.694;23.282;2023-08-08T14:14:15;2.00;;;1.80;;
6463;SDS011;3265;42.694;23.282;2023-08-08T14:16:42;2.42;;;1.63;;
6463;SDS011;3265;42.694;23.282;2023-08-08T14:19:09;2.88;;;1.73;;
6463;SDS011;3265;42.694;23.282;2023-08-08T14:21:37;2.20;;;1.80;;
6463;SDS011;3265;42.694;23.282;2023-08-08T14:24:04;4.68;;;2.00;;
6463;SDS011;3265;42.694;23.282;2023-08-08T14:26:33;1.67;;;1.58;;
6463;SDS011;3265;42.694;23.282;2023-08-08T14:29:00;2.95;;;1.70;;
6463;SDS011;3265;42.694;23.282;2023-08-08T14:31:27;3.15;;;1.90;;
6463;SDS011;3265;42.694;23.282;2023-08-08T14:33:54;2.95;;;1.60;;
6463;SDS011;3265;42.694;23.282;2023-08-08T14:36:21;2.83;;;1.40;;
6463;SDS011;3265;42.694;23.282;2023-08-08T14:38:51;4.43;;;1.70;;
6463;SDS011;3265;42.694;23.282;2023-08-08T14:41:18;3.25;;;1.63;;
6463;SDS011;3265;42.694;23.282;2023-08-08T14:43:46;2.22;;;1.95;;
6463;SDS011;3265;42.694;23.282;2023-08-08T14:46:13;4.75;;;1.90;;
6463;SDS011;3265;42.694;23.282;2023-08-08T14:48:40;3.05;;;1.80;;
6463;SDS011;3265;42.694;23.282;2023-08-08T14:51:07;3.63;;;1.70;;
6463;SDS011;3265;42.694;23.282;2023-08-08T14:53:34;2.30;;;1.90;;
6463;SDS011;3265;42.694;23.282;2023-08-08T14:56:01;2.28;;;1.98;;
6463;SDS011;3265;42.694;23.282;2023-08-08T14:58:27;4.00;;;2.10;;
6463;SDS011;3265;42.694;23.282;2023-08-08T15:00:56;3.05;;;1.90;;
6463;SDS011;3265;42.694;23.282;2023-08-08T15:03:23;3.85;;;1.70;;
6463;SDS011;3265;42.694;23.282;2023-08-08T15:05:49;1.98;;;1.50;;